Pagina principală
METAR-TAF:

METAR-TAF

Aeroporturi :

Lytton, Columbia Britanică, Canada

Latitudine: 50-14N, longitudine: 121-35W, elevație: 229 m

Observații meteo curente

Raportul a fost făcut în urmă cu 24 de minute, la 22:00 UTC
Vânt 14 kt de la Sud cu rafale de până la 30 kt, variabil între Est/Sud-est și Sud/Sud-vest
Temperatură 30°C
Umiditate 15%
Presiune 1006 hPa
Vizibilitate: 14.5 km
Cer senin

METAR: CWLY 222200Z AUTO 18014G30KT 110V210 9SM CLR 30/01 A2972 RMK SLP061 DENSITY ALT 2900FT

Ora: 15:24 (22:24 UTC)


TAF: lipsă

Observații și prognoze meteo pentru peste 4.000 de aeroporturi (rapoarte METAR și TAF).

Stațiile disponibile sunt reprezentate pe hartă prin puncte galbene și roșii.

Țineți indicatorul mouse-ului pe punctul dorit pentru a vedea denumirea stației.

Apoi, faceți clic pentru a vedea observațiile și prognozele meteorologice.

Pentru a schimba harta: Pentru mărire, faceți clic pe butoanele verzi cu cruce neagră; pentru micșorare, pe butonul verde cu o liniuță; pentru hărți învecinate, pe săgețile verzi.


METAR-TAF: